createdAt,value
2023-02-24T00:00:38.771Z,29.60
2023-02-24T00:03:10.903Z,30.20
2023-02-24T00:05:39.864Z,28.10
2023-02-24T00:08:08.823Z,30.00
2023-02-24T00:10:37.753Z,29.33
2023-02-24T00:13:05.436Z,28.10
2023-02-24T00:15:33.319Z,28.93
2023-02-24T00:18:07.212Z,27.43
2023-02-24T00:20:35.807Z,27.80
2023-02-24T00:23:03.714Z,28.23
2023-02-24T00:25:33.209Z,28.23
2023-02-24T00:28:01.716Z,27.07
2023-02-24T00:30:32.753Z,28.03
2023-02-24T00:33:02.381Z,26.23
2023-02-24T00:35:32.346Z,27.10
2023-02-24T00:38:00.744Z,25.70
2023-02-24T00:40:30.709Z,27.20
2023-02-24T00:43:01.933Z,24.73
2023-02-24T00:45:30.736Z,24.40
2023-02-24T00:47:58.507Z,24.13
2023-02-24T00:50:27.076Z,22.83
2023-02-24T00:52:54.771Z,23.07
2023-02-24T00:55:23.186Z,20.60
2023-02-24T00:57:51.612Z,16.90
2023-02-24T01:00:21.823Z,15.07
2023-02-24T01:02:49.727Z,14.00
2023-02-24T01:05:17.513Z,13.97
2023-02-24T01:07:45.258Z,13.20
2023-02-24T01:10:13.126Z,13.70
2023-02-24T01:12:49.825Z,12.83
2023-02-24T01:15:19.854Z,12.57
2023-02-24T01:17:49.240Z,12.80
2023-02-24T01:20:18.364Z,12.60
2023-02-24T01:22:47.060Z,10.07
2023-02-24T01:25:17.869Z,10.47
2023-02-24T01:27:45.629Z,10.10
2023-02-24T01:30:15.960Z,10.20
2023-02-24T01:32:44.796Z,8.37
2023-02-24T01:35:15.004Z,9.37
2023-02-24T01:37:42.968Z,9.47
2023-02-24T01:40:18.719Z,9.90
2023-02-24T01:42:49.393Z,9.07
2023-02-24T01:45:22.957Z,7.93
2023-02-24T01:47:51.642Z,11.13
2023-02-24T01:50:22.262Z,7.67
2023-02-24T01:52:51.781Z,8.47
2023-02-24T01:55:22.656Z,6.20
2023-02-24T01:57:51.848Z,7.27
2023-02-24T02:00:38.160Z,9.33
2023-02-24T02:03:15.280Z,7.23
2023-02-24T02:05:48.673Z,7.63
2023-02-24T02:08:17.971Z,7.43
2023-02-24T02:10:46.312Z,6.90
2023-02-24T02:13:16.071Z,6.50
2023-02-24T02:15:48.128Z,6.43
2023-02-24T02:18:19.262Z,5.63
2023-02-24T02:21:04.967Z,5.40
2023-02-24T02:23:50.930Z,4.90
2023-02-24T02:26:37.335Z,4.90
2023-02-24T02:29:22.305Z,4.13
2023-02-24T02:32:08.607Z,5.33
2023-02-24T02:34:46.184Z,4.30
2023-02-24T02:37:18.286Z,3.60
2023-02-24T02:39:50.752Z,3.90
2023-02-24T02:42:26.072Z,3.40
2023-02-24T02:44:58.720Z,4.13
2023-02-24T02:47:29.129Z,2.97
2023-02-24T02:50:01.113Z,3.97
2023-02-24T02:52:33.113Z,3.50
2023-02-24T02:55:02.436Z,3.83
2023-02-24T02:57:33.908Z,3.07
2023-02-24T03:00:10.143Z,3.40
2023-02-24T03:02:42.837Z,4.00
2023-02-24T03:05:12.773Z,2.53
2023-02-24T03:07:42.924Z,3.03
2023-02-24T03:10:20.778Z,4.20
2023-02-24T03:12:50.713Z,3.20
2023-02-24T03:15:21.157Z,3.40
2023-02-24T03:17:50.438Z,3.50
2023-02-24T03:20:23.790Z,4.40
2023-02-24T03:22:55.226Z,3.83
2023-02-24T03:25:25.233Z,4.13
2023-02-24T03:27:56.915Z,3.83
2023-02-24T03:30:28.575Z,3.67
2023-02-24T03:32:59.027Z,3.03
2023-02-24T03:35:34.663Z,2.93
2023-02-24T03:38:03.708Z,3.37
2023-02-24T03:40:37.168Z,3.10
2023-02-24T03:43:08.273Z,2.67
2023-02-24T03:45:38.186Z,3.40
2023-02-24T03:48:07.013Z,2.83
2023-02-24T03:50:38.203Z,2.63
2023-02-24T03:53:30.434Z,3.80
2023-02-24T03:56:03.685Z,3.50
2023-02-24T03:58:47.161Z,3.53
2023-02-24T04:01:18.841Z,3.30
2023-02-24T04:03:50.040Z,3.27
2023-02-24T04:06:34.657Z,3.40
2023-02-24T04:09:08.717Z,3.43
2023-02-24T04:11:47.311Z,3.20
2023-02-24T04:14:19.653Z,3.70
2023-02-24T04:16:52.156Z,3.30
2023-02-24T04:19:24.118Z,3.30
2023-02-24T04:21:55.720Z,4.03
2023-02-24T04:24:28.941Z,3.93
2023-02-24T04:26:59.416Z,4.00
2023-02-24T04:29:35.509Z,4.37
2023-02-24T04:32:06.716Z,4.30
2023-02-24T04:34:35.127Z,4.03
2023-02-24T04:37:04.990Z,3.57
2023-02-24T04:39:38.334Z,4.03
2023-02-24T04:42:10.830Z,3.83
2023-02-24T04:44:38.934Z,4.70
2023-02-24T04:47:07.243Z,3.93
2023-02-24T04:49:35.109Z,3.17
2023-02-24T04:52:02.794Z,4.30
2023-02-24T04:54:32.686Z,2.90
2023-02-24T04:57:00.680Z,2.97
2023-02-24T04:59:28.721Z,2.90
2023-02-24T05:02:01.276Z,3.57
2023-02-24T05:04:32.166Z,3.20
2023-02-24T05:07:00.236Z,3.50
2023-02-24T05:09:30.053Z,2.57
2023-02-24T05:12:00.600Z,2.90
2023-02-24T05:14:28.434Z,3.23
2023-02-24T05:17:00.242Z,2.70
2023-02-24T05:19:46.024Z,2.80
2023-02-24T05:22:14.572Z,3.03
2023-02-24T05:24:42.486Z,2.37
2023-02-24T05:27:11.791Z,3.23
2023-02-24T05:29:40.422Z,2.90
2023-02-24T05:32:08.414Z,3.10
2023-02-24T05:34:38.943Z,2.30
2023-02-24T05:37:10.778Z,2.73
2023-02-24T05:39:38.670Z,2.83
2023-02-24T05:42:07.139Z,2.83
2023-02-24T05:44:37.778Z,1.90
2023-02-24T05:47:06.148Z,2.47
2023-02-24T05:49:34.673Z,2.20
2023-02-24T05:52:07.469Z,2.00
2023-02-24T05:54:36.580Z,2.10
2023-02-24T05:57:05.410Z,2.53
2023-02-24T05:59:34.236Z,1.97
2023-02-24T06:02:07.041Z,2.10
2023-02-24T06:04:46.127Z,1.80
2023-02-24T06:07:18.794Z,2.53
2023-02-24T06:09:50.135Z,2.03
2023-02-24T06:12:18.627Z,2.10
2023-02-24T06:14:46.527Z,1.97
2023-02-24T06:17:17.258Z,1.90
2023-02-24T06:19:45.082Z,1.83
2023-02-24T06:22:13.740Z,2.00
2023-02-24T06:24:44.840Z,2.00
2023-02-24T06:27:17.618Z,1.60
2023-02-24T06:29:46.314Z,1.97
2023-02-24T06:32:15.499Z,4.40
2023-02-24T06:34:43.405Z,2.00
2023-02-24T06:37:12.231Z,1.43
2023-02-24T06:39:40.158Z,2.10
2023-02-24T06:42:08.914Z,1.87
2023-02-24T06:44:38.498Z,2.23
2023-02-24T06:47:07.732Z,2.40
2023-02-24T06:49:37.524Z,2.13
2023-02-24T06:52:05.846Z,1.43
2023-02-24T06:54:35.887Z,2.10
2023-02-24T06:57:04.339Z,2.30
2023-02-24T06:59:32.563Z,1.87
2023-02-24T07:02:01.764Z,1.30
2023-02-24T07:04:30.142Z,2.60
2023-02-24T07:07:03.053Z,1.80
2023-02-24T07:09:32.198Z,3.00
2023-02-24T07:12:02.827Z,1.50
2023-02-24T07:14:31.596Z,1.60
2023-02-24T07:16:59.530Z,1.73
2023-02-24T07:19:29.246Z,1.80
2023-02-24T07:22:00.046Z,1.80
2023-02-24T07:24:36.478Z,1.67
2023-02-24T07:27:05.304Z,2.77
2023-02-24T07:29:34.090Z,2.03
2023-02-24T07:32:03.982Z,1.93
2023-02-24T07:34:33.765Z,2.50
2023-02-24T07:37:08.429Z,1.70
2023-02-24T07:39:37.864Z,2.17
2023-02-24T07:42:06.210Z,2.10
2023-02-24T07:44:44.704Z,2.03
2023-02-24T07:47:12.434Z,2.30
2023-02-24T07:49:40.906Z,1.97
2023-02-24T07:52:10.424Z,2.87
2023-02-24T07:54:39.687Z,2.17
2023-02-24T07:57:14.362Z,2.73
2023-02-24T07:59:46.770Z,2.80
2023-02-24T08:02:15.106Z,2.60
2023-02-24T08:04:49.797Z,2.50
2023-02-24T08:07:24.734Z,3.27
2023-02-24T08:10:12.341Z,2.70
2023-02-24T08:12:42.926Z,2.80
2023-02-24T08:15:17.944Z,2.67
2023-02-24T08:17:47.363Z,2.20
2023-02-24T08:20:25.889Z,3.03
2023-02-24T08:22:54.481Z,3.07
2023-02-24T08:25:24.448Z,2.30
2023-02-24T08:28:12.489Z,2.20
2023-02-24T08:30:44.930Z,2.87
2023-02-24T08:33:16.172Z,2.77
2023-02-24T08:35:44.746Z,1.97
2023-02-24T08:38:14.959Z,2.80
2023-02-24T08:40:52.420Z,2.40
2023-02-24T08:43:33.951Z,2.37
2023-02-24T08:46:04.515Z,2.40
2023-02-24T08:48:37.438Z,2.60
2023-02-24T08:51:08.268Z,2.77
2023-02-24T08:53:40.204Z,3.03
2023-02-24T08:56:13.051Z,2.60
2023-02-24T08:58:47.061Z,3.10
2023-02-24T09:01:24.165Z,2.53
2023-02-24T09:03:54.053Z,2.73
2023-02-24T09:06:25.530Z,2.50
2023-02-24T09:09:15.032Z,2.17
2023-02-24T09:11:45.076Z,3.40
2023-02-24T09:14:25.945Z,2.90
2023-02-24T09:17:05.934Z,3.10
2023-02-24T09:19:54.548Z,2.97
2023-02-24T09:22:33.282Z,2.50
2023-02-24T09:25:21.641Z,2.83
2023-02-24T09:27:56.506Z,2.30
2023-02-24T09:30:38.781Z,3.13
2023-02-24T09:33:18.127Z,2.73
2023-02-24T09:35:46.798Z,2.40
2023-02-24T09:38:16.683Z,2.57
2023-02-24T09:40:49.786Z,2.40
2023-02-24T09:43:21.604Z,2.47
2023-02-24T09:45:54.350Z,2.80
2023-02-24T09:48:25.169Z,2.20
2023-02-24T09:51:05.207Z,2.03
2023-02-24T09:53:41.187Z,2.33
2023-02-24T09:56:16.264Z,2.30
2023-02-24T09:58:48.766Z,2.00
2023-02-24T10:01:33.760Z,2.50
2023-02-24T10:04:18.498Z,1.80
2023-02-24T10:06:49.667Z,2.13
2023-02-24T10:09:23.416Z,1.90
2023-02-24T10:11:55.514Z,1.70
2023-02-24T10:14:37.770Z,1.83
2023-02-24T10:17:24.426Z,1.73
2023-02-24T10:19:59.979Z,2.10
2023-02-24T10:22:36.019Z,2.00
2023-02-24T10:25:11.846Z,1.70
2023-02-24T10:27:44.410Z,1.57
2023-02-24T10:30:20.484Z,2.50
2023-02-24T10:32:53.297Z,2.40
2023-02-24T10:35:25.874Z,1.50
2023-02-24T10:38:02.853Z,1.80
2023-02-24T10:40:44.949Z,2.60
2023-02-24T10:43:17.849Z,2.10
2023-02-24T10:45:48.326Z,1.70
2023-02-24T10:48:42.080Z,1.47
2023-02-24T10:51:19.675Z,1.43
2023-02-24T10:53:53.223Z,1.40
2023-02-24T10:56:41.819Z,2.00
2023-02-24T10:59:28.780Z,1.90
2023-02-24T11:02:06.575Z,2.10
2023-02-24T11:04:53.925Z,1.50
2023-02-24T11:07:33.473Z,1.93
2023-02-24T11:10:11.596Z,2.10
2023-02-24T11:13:09.409Z,2.33
2023-02-24T11:16:00.801Z,2.03
2023-02-24T11:18:31.216Z,2.77
2023-02-24T11:21:00.940Z,2.77
2023-02-24T11:23:30.210Z,2.80
2023-02-24T11:26:00.987Z,2.50
2023-02-24T11:28:39.214Z,2.87
2023-02-24T11:31:17.438Z,2.70
2023-02-24T11:33:52.115Z,3.83
2023-02-24T11:36:25.423Z,2.97
2023-02-24T11:39:15.323Z,3.50
2023-02-24T11:41:46.639Z,3.30
2023-02-24T11:44:19.765Z,4.10
2023-02-24T11:46:49.746Z,4.00
2023-02-24T11:49:26.782Z,3.90
2023-02-24T11:51:55.489Z,3.93
2023-02-24T11:54:24.294Z,4.30
2023-02-24T11:56:54.285Z,4.57
2023-02-24T11:59:29.413Z,4.70
2023-02-24T12:02:00.161Z,4.33
2023-02-24T12:04:32.270Z,4.50
2023-02-24T12:07:02.801Z,4.60
2023-02-24T12:09:33.186Z,4.70
2023-02-24T12:12:03.066Z,5.63
2023-02-24T12:14:33.814Z,4.13
2023-02-24T12:17:07.722Z,4.40
2023-02-24T12:19:40.617Z,4.37
2023-02-24T12:22:12.669Z,4.07
2023-02-24T12:24:42.247Z,3.73
2023-02-24T12:27:15.661Z,3.90
2023-02-24T12:30:06.526Z,3.87
2023-02-24T12:32:42.929Z,3.80
2023-02-24T12:35:19.879Z,3.23
2023-02-24T12:37:52.059Z,3.43
2023-02-24T12:40:26.948Z,3.37
2023-02-24T12:42:58.589Z,3.27
2023-02-24T12:45:30.523Z,3.60
2023-02-24T12:48:05.611Z,3.00
2023-02-24T12:50:42.673Z,3.50
2023-02-24T12:53:14.439Z,2.90
2023-02-24T12:55:46.613Z,4.17
2023-02-24T12:58:17.013Z,3.30
2023-02-24T13:00:52.080Z,3.10
2023-02-24T13:03:32.826Z,3.90
2023-02-24T13:06:07.663Z,3.80
2023-02-24T13:08:42.298Z,3.40
2023-02-24T13:11:16.449Z,4.20
2023-02-24T13:13:48.869Z,4.33
2023-02-24T13:16:16.560Z,4.13
2023-02-24T13:18:45.346Z,4.87
2023-02-24T13:21:23.429Z,4.67
2023-02-24T13:23:57.411Z,5.30
2023-02-24T13:26:26.489Z,4.33
2023-02-24T13:29:00.581Z,4.83
2023-02-24T13:31:28.537Z,4.10
2023-02-24T13:33:56.446Z,4.00
2023-02-24T13:36:25.844Z,4.90
2023-02-24T13:39:04.675Z,4.47
2023-02-24T13:41:40.667Z,4.80
2023-02-24T13:44:26.534Z,4.20
2023-02-24T13:47:06.673Z,4.20
2023-02-24T13:49:37.750Z,4.33
2023-02-24T13:52:09.108Z,4.70
2023-02-24T13:54:48.224Z,4.50
2023-02-24T13:57:29.728Z,4.33
2023-02-24T14:00:02.178Z,4.00
2023-02-24T14:02:42.989Z,4.10
2023-02-24T14:05:14.661Z,4.30
2023-02-24T14:07:43.741Z,4.13
2023-02-24T14:10:19.011Z,10.73
2023-02-24T14:12:48.222Z,4.20
2023-02-24T14:15:17.574Z,4.90
2023-02-24T14:17:45.382Z,5.07
2023-02-24T14:20:19.161Z,3.90
2023-02-24T14:22:49.853Z,5.00
2023-02-24T14:25:18.477Z,4.50
2023-02-24T14:27:46.714Z,4.13
2023-02-24T14:30:23.164Z,4.70
2023-02-24T14:32:51.145Z,4.10
2023-02-24T14:35:20.277Z,4.07
2023-02-24T14:37:49.300Z,4.20
2023-02-24T14:40:17.281Z,4.50
2023-02-24T14:42:48.892Z,4.50
2023-02-24T14:45:18.413Z,4.67
2023-02-24T14:47:46.276Z,5.30
2023-02-24T14:50:17.030Z,5.10
2023-02-24T14:52:50.040Z,5.50
2023-02-24T14:55:21.217Z,5.50
2023-02-24T14:57:51.719Z,6.37
2023-02-24T15:00:23.891Z,5.70
2023-02-24T15:02:54.254Z,4.60
2023-02-24T15:05:22.202Z,5.40
2023-02-24T15:07:51.961Z,4.50
2023-02-24T15:10:25.899Z,4.77
2023-02-24T15:12:58.235Z,5.00
2023-02-24T15:15:28.891Z,4.80
2023-02-24T15:17:57.920Z,4.70
2023-02-24T15:20:26.794Z,4.60
2023-02-24T15:22:54.800Z,4.80
2023-02-24T15:25:33.866Z,6.10
2023-02-24T15:28:24.266Z,7.90
2023-02-24T15:30:59.865Z,6.73
2023-02-24T15:33:30.299Z,5.40
2023-02-24T15:36:00.172Z,5.30
2023-02-24T15:38:31.258Z,4.87
2023-02-24T15:41:01.721Z,4.40
2023-02-24T15:43:33.605Z,3.93
2023-02-24T15:46:02.511Z,5.23
2023-02-24T15:48:31.474Z,4.93
2023-02-24T15:51:03.081Z,4.93
2023-02-24T15:53:30.765Z,4.67
2023-02-24T15:56:00.199Z,4.60
2023-02-24T15:58:28.504Z,5.17
2023-02-24T16:00:56.208Z,5.07
2023-02-24T16:03:24.090Z,4.80
2023-02-24T16:05:52.026Z,5.10
2023-02-24T16:08:20.496Z,5.67
2023-02-24T16:10:50.274Z,5.13
2023-02-24T16:13:22.320Z,5.70
2023-02-24T16:15:53.447Z,5.50
2023-02-24T16:18:23.179Z,6.50
2023-02-24T16:20:54.176Z,6.27
2023-02-24T16:23:23.084Z,6.50
2023-02-24T16:25:51.739Z,7.30
2023-02-24T16:28:21.749Z,7.50
2023-02-24T16:30:50.440Z,7.80
2023-02-24T16:33:20.974Z,10.07
2023-02-24T16:35:50.330Z,7.90
2023-02-24T16:38:19.083Z,8.10
2023-02-24T16:40:48.649Z,7.67
2023-02-24T16:43:16.946Z,8.50
2023-02-24T16:45:46.385Z,9.00
2023-02-24T16:48:17.078Z,9.53
2023-02-24T16:50:44.835Z,9.20
2023-02-24T16:53:14.946Z,9.80
2023-02-24T16:55:43.307Z,10.53
2023-02-24T16:58:10.928Z,10.20
2023-02-24T17:00:39.367Z,10.77
2023-02-24T17:03:14.010Z,11.23
2023-02-24T17:05:41.646Z,11.10
2023-02-24T17:08:10.957Z,11.60
2023-02-24T17:10:40.152Z,13.90
2023-02-24T17:13:07.868Z,11.80
2023-02-24T17:15:35.949Z,12.40
2023-02-24T17:18:03.676Z,13.03
2023-02-24T17:20:32.715Z,13.13
2023-02-24T17:23:00.563Z,12.77
2023-02-24T17:25:28.857Z,14.20
2023-02-24T17:27:57.164Z,15.20
2023-02-24T17:30:27.495Z,13.90
2023-02-24T17:32:55.480Z,13.90
2023-02-24T17:35:23.258Z,13.57
2023-02-24T17:37:52.709Z,14.20
2023-02-24T17:40:20.897Z,14.80
2023-02-24T17:42:49.002Z,14.53
2023-02-24T17:45:17.191Z,15.20
2023-02-24T17:47:44.889Z,15.63
2023-02-24T17:50:13.565Z,14.87
2023-02-24T17:52:41.864Z,16.57
2023-02-24T17:55:36.824Z,16.57
2023-02-24T17:58:04.801Z,16.43
2023-02-24T18:00:32.657Z,17.90
2023-02-24T18:03:03.280Z,18.57
2023-02-24T18:05:31.525Z,18.50
2023-02-24T18:07:59.307Z,19.33
2023-02-24T18:10:28.552Z,19.60
2023-02-24T18:12:56.318Z,18.20
2023-02-24T18:15:24.031Z,18.80
2023-02-24T18:17:51.758Z,19.40
2023-02-24T18:20:19.693Z,19.03
2023-02-24T18:22:47.685Z,19.00
2023-02-24T18:25:15.419Z,18.30
2023-02-24T18:27:44.453Z,18.97
2023-02-24T18:30:13.137Z,19.33
2023-02-24T18:32:44.766Z,18.37
2023-02-24T18:35:13.128Z,19.67
2023-02-24T18:37:40.780Z,18.40
2023-02-24T18:40:09.380Z,17.67
2023-02-24T18:42:37.685Z,19.60
2023-02-24T18:45:07.904Z,18.20
2023-02-24T18:47:36.060Z,20.70
2023-02-24T18:50:03.755Z,18.17
2023-02-24T18:52:34.704Z,19.00
2023-02-24T18:55:02.445Z,17.73
2023-02-24T18:57:30.134Z,18.30
2023-02-24T18:59:58.044Z,17.80
2023-02-24T19:02:27.204Z,17.87
2023-02-24T19:04:55.292Z,18.37
2023-02-24T19:07:22.951Z,18.30
2023-02-24T19:09:51.251Z,18.93
2023-02-24T19:12:20.319Z,20.10
2023-02-24T19:14:51.550Z,18.23
2023-02-24T19:17:20.105Z,18.30
2023-02-24T19:19:49.072Z,17.50
2023-02-24T19:22:17.068Z,17.60
2023-02-24T19:24:44.806Z,18.30
2023-02-24T19:27:12.957Z,18.30
2023-02-24T19:29:40.852Z,20.70
2023-02-24T19:32:08.863Z,18.30
2023-02-24T19:34:37.619Z,19.03
2023-02-24T19:37:06.786Z,18.17
2023-02-24T19:39:34.494Z,17.17
2023-02-24T19:42:02.580Z,18.57
2023-02-24T19:44:30.876Z,17.00
2023-02-24T19:46:58.708Z,20.97
2023-02-24T19:49:26.381Z,18.53
2023-02-24T19:51:54.709Z,18.57
2023-02-24T19:54:23.768Z,18.93
2023-02-24T19:56:52.352Z,18.83
2023-02-24T19:59:20.119Z,18.37
2023-02-24T20:01:51.612Z,19.90
2023-02-24T20:04:22.444Z,18.53
2023-02-24T20:06:50.290Z,20.27
2023-02-24T20:09:21.231Z,19.47
2023-02-24T20:11:55.068Z,18.80
2023-02-24T20:14:23.187Z,20.17
2023-02-24T20:16:52.260Z,20.90
2023-02-24T20:19:20.551Z,20.40
2023-02-24T20:21:48.434Z,20.10
2023-02-24T20:24:17.105Z,18.73
2023-02-24T20:26:47.190Z,20.13
2023-02-24T20:29:16.532Z,18.97
2023-02-24T20:31:46.254Z,20.30
2023-02-24T20:34:18.088Z,20.20
2023-02-24T20:36:46.213Z,19.70
2023-02-24T20:39:14.302Z,20.47
2023-02-24T20:41:46.185Z,20.57
2023-02-24T20:44:14.059Z,20.33
2023-02-24T20:46:43.345Z,21.37
2023-02-24T20:49:12.671Z,21.40
2023-02-24T20:51:40.699Z,20.97
2023-02-24T20:54:10.214Z,21.00
2023-02-24T20:56:38.820Z,21.80
2023-02-24T20:59:07.530Z,23.10
2023-02-24T21:01:36.157Z,22.57
2023-02-24T21:04:06.002Z,21.40
2023-02-24T21:06:33.790Z,23.37
2023-02-24T21:09:01.497Z,22.30
2023-02-24T21:11:30.688Z,22.50
2023-02-24T21:13:59.021Z,21.80
2023-02-24T21:16:27.700Z,22.30
2023-02-24T21:18:56.322Z,21.70
2023-02-24T21:21:25.964Z,22.67
2023-02-24T21:23:53.945Z,22.23
2023-02-24T21:26:22.030Z,23.20
2023-02-24T21:28:56.839Z,24.03
2023-02-24T21:31:25.931Z,22.87
2023-02-24T21:33:53.979Z,24.13
2023-02-24T21:36:26.143Z,23.00
2023-02-24T21:38:55.848Z,23.73
2023-02-24T21:41:23.878Z,24.37
2023-02-24T21:43:55.962Z,23.37
2023-02-24T21:46:27.930Z,23.53
2023-02-24T21:48:57.028Z,22.00
2023-02-24T21:51:25.873Z,22.10
2023-02-24T21:53:56.988Z,22.83
2023-02-24T21:56:26.176Z,22.40
2023-02-24T21:58:54.773Z,22.77
2023-02-24T22:01:24.425Z,22.00
2023-02-24T22:03:54.089Z,21.87
2023-02-24T22:06:22.616Z,23.97
2023-02-24T22:08:50.572Z,22.30
2023-02-24T22:11:20.250Z,22.13
2023-02-24T22:13:48.246Z,20.87
2023-02-24T22:16:18.225Z,21.40
2023-02-24T22:18:46.651Z,20.30
2023-02-24T22:21:17.064Z,20.17
2023-02-24T22:23:45.709Z,18.00
2023-02-24T22:26:13.643Z,18.27
2023-02-24T22:28:43.905Z,17.30
2023-02-24T22:31:13.192Z,17.90
2023-02-24T22:33:41.935Z,16.63
2023-02-24T22:36:11.549Z,17.20
2023-02-24T22:38:40.068Z,17.27
2023-02-24T22:41:09.544Z,16.13
2023-02-24T22:43:37.642Z,17.20
2023-02-24T22:46:08.090Z,16.53
2023-02-24T22:48:37.460Z,15.60
2023-02-24T22:51:07.156Z,15.00
2023-02-24T22:53:36.280Z,13.00
2023-02-24T22:56:03.999Z,14.37
2023-02-24T22:58:32.748Z,13.20
2023-02-24T23:01:00.897Z,13.17
2023-02-24T23:03:31.485Z,12.67
2023-02-24T23:06:00.265Z,11.87
2023-02-24T23:08:28.282Z,11.50
2023-02-24T23:10:56.448Z,10.80
2023-02-24T23:13:24.458Z,10.23
2023-02-24T23:15:52.613Z,8.93
2023-02-24T23:18:20.238Z,9.87
2023-02-24T23:20:59.650Z,8.80
2023-02-24T23:23:27.483Z,8.30
2023-02-24T23:25:55.192Z,7.80
2023-02-24T23:28:23.361Z,7.40
2023-02-24T23:30:51.103Z,6.57
2023-02-24T23:33:19.390Z,6.17
2023-02-24T23:35:47.949Z,5.27
2023-02-24T23:38:17.148Z,5.33
2023-02-24T23:40:50.105Z,4.63
2023-02-24T23:43:18.608Z,6.20
2023-02-24T23:45:46.486Z,4.20
2023-02-24T23:48:15.853Z,4.07
2023-02-24T23:50:46.025Z,4.60
2023-02-24T23:53:13.874Z,3.80
2023-02-24T23:55:42.925Z,4.47
2023-02-24T23:58:12.185Z,4.30
